sensor_id;sensor_type;location;lat;lon;timestamp;P1;durP1;ratioP1;P2;durP2;ratioP2
56477;SDS011;42382;53.210;5.772;2022-08-02T00:02:10;7.13;;;1.10;;
56477;SDS011;42382;53.210;5.772;2022-08-02T00:04:36;5.25;;;0.75;;
56477;SDS011;42382;53.210;5.772;2022-08-02T00:07:01;5.75;;;0.60;;
56477;SDS011;42382;53.210;5.772;2022-08-02T00:09:27;4.32;;;0.80;;
56477;SDS011;42382;53.210;5.772;2022-08-02T00:11:53;6.60;;;1.10;;
56477;SDS011;42382;53.210;5.772;2022-08-02T00:14:18;6.93;;;1.00;;
56477;SDS011;42382;53.210;5.772;2022-08-02T00:16:44;9.05;;;1.38;;
56477;SDS011;42382;53.210;5.772;2022-08-02T00:19:10;3.05;;;0.68;;
56477;SDS011;42382;53.210;5.772;2022-08-02T00:21:35;7.07;;;1.55;;
56477;SDS011;42382;53.210;5.772;2022-08-02T00:24:01;6.78;;;1.17;;
56477;SDS011;42382;53.210;5.772;2022-08-02T00:26:27;5.00;;;1.00;;
56477;SDS011;42382;53.210;5.772;2022-08-02T00:28:52;4.50;;;1.08;;
56477;SDS011;42382;53.210;5.772;2022-08-02T00:31:18;5.68;;;1.05;;
56477;SDS011;42382;53.210;5.772;2022-08-02T00:33:44;6.15;;;1.25;;
56477;SDS011;42382;53.210;5.772;2022-08-02T00:36:09;6.93;;;1.02;;
56477;SDS011;42382;53.210;5.772;2022-08-02T00:38:35;7.30;;;1.42;;
56477;SDS011;42382;53.210;5.772;2022-08-02T00:41:01;8.15;;;1.73;;
56477;SDS011;42382;53.210;5.772;2022-08-02T00:43:26;2.70;;;0.75;;
56477;SDS011;42382;53.210;5.772;2022-08-02T00:45:52;6.50;;;1.38;;
56477;SDS011;42382;53.210;5.772;2022-08-02T00:48:18;8.88;;;1.40;;
56477;SDS011;42382;53.210;5.772;2022-08-02T00:50:43;8.02;;;1.20;;
56477;SDS011;42382;53.210;5.772;2022-08-02T00:53:09;6.82;;;1.38;;
56477;SDS011;42382;53.210;5.772;2022-08-02T00:55:35;7.30;;;1.10;;
56477;SDS011;42382;53.210;5.772;2022-08-02T00:58:01;9.43;;;1.63;;
56477;SDS011;42382;53.210;5.772;2022-08-02T01:00:28;7.38;;;1.52;;
56477;SDS011;42382;53.210;5.772;2022-08-02T01:02:53;6.90;;;1.40;;
56477;SDS011;42382;53.210;5.772;2022-08-02T01:05:19;10.85;;;2.05;;
56477;SDS011;42382;53.210;5.772;2022-08-02T01:07:44;8.98;;;1.25;;
56477;SDS011;42382;53.210;5.772;2022-08-02T01:10:10;6.03;;;1.15;;
56477;SDS011;42382;53.210;5.772;2022-08-02T01:12:36;9.75;;;1.38;;
56477;SDS011;42382;53.210;5.772;2022-08-02T01:15:03;9.52;;;1.58;;
56477;SDS011;42382;53.210;5.772;2022-08-02T01:18:05;8.63;;;1.48;;
56477;SDS011;42382;53.210;5.772;2022-08-02T01:20:54;10.52;;;1.40;;
56477;SDS011;42382;53.210;5.772;2022-08-02T01:23:55;6.13;;;0.98;;
56477;SDS011;42382;53.210;5.772;2022-08-02T01:26:54;6.43;;;1.40;;
56477;SDS011;42382;53.210;5.772;2022-08-02T01:29:44;5.90;;;1.15;;
56477;SDS011;42382;53.210;5.772;2022-08-02T01:32:16;5.82;;;1.67;;
56477;SDS011;42382;53.210;5.772;2022-08-02T01:34:48;8.27;;;1.10;;
56477;SDS011;42382;53.210;5.772;2022-08-02T01:37:23;5.80;;;1.42;;
56477;SDS011;42382;53.210;5.772;2022-08-02T01:42:35;7.60;;;1.63;;
56477;SDS011;42382;53.210;5.772;2022-08-02T01:45:07;10.85;;;1.50;;
56477;SDS011;42382;53.210;5.772;2022-08-02T01:47:35;5.72;;;1.48;;
56477;SDS011;42382;53.210;5.772;2022-08-02T01:50:04;8.73;;;1.55;;
56477;SDS011;42382;53.210;5.772;2022-08-02T01:52:32;10.00;;;1.83;;
56477;SDS011;42382;53.210;5.772;2022-08-02T01:57:45;7.43;;;1.70;;
56477;SDS011;42382;53.210;5.772;2022-08-02T02:00:15;6.97;;;1.42;;
56477;SDS011;42382;53.210;5.772;2022-08-02T02:02:42;8.15;;;1.42;;
56477;SDS011;42382;53.210;5.772;2022-08-02T02:05:13;5.38;;;1.40;;
56477;SDS011;42382;53.210;5.772;2022-08-02T02:07:41;8.43;;;1.83;;
56477;SDS011;42382;53.210;5.772;2022-08-02T02:10:11;6.07;;;1.20;;
56477;SDS011;42382;53.210;5.772;2022-08-02T02:12:39;7.65;;;1.45;;
56477;SDS011;42382;53.210;5.772;2022-08-02T02:15:08;7.90;;;1.83;;
56477;SDS011;42382;53.210;5.772;2022-08-02T02:17:35;4.93;;;1.70;;
56477;SDS011;42382;53.210;5.772;2022-08-02T02:20:03;9.85;;;1.27;;
56477;SDS011;42382;53.210;5.772;2022-08-02T02:22:30;8.88;;;1.48;;
56477;SDS011;42382;53.210;5.772;2022-08-02T02:24:57;9.07;;;1.80;;
56477;SDS011;42382;53.210;5.772;2022-08-02T02:27:22;6.32;;;1.73;;
56477;SDS011;42382;53.210;5.772;2022-08-02T02:29:49;8.07;;;1.80;;
56477;SDS011;42382;53.210;5.772;2022-08-02T02:32:17;16.13;;;2.72;;
56477;SDS011;42382;53.210;5.772;2022-08-02T02:34:45;10.27;;;2.55;;
56477;SDS011;42382;53.210;5.772;2022-08-02T02:37:20;8.63;;;2.03;;
56477;SDS011;42382;53.210;5.772;2022-08-02T02:39:50;10.77;;;1.60;;
56477;SDS011;42382;53.210;5.772;2022-08-02T02:42:19;9.35;;;1.67;;
56477;SDS011;42382;53.210;5.772;2022-08-02T02:44:48;6.15;;;1.75;;
56477;SDS011;42382;53.210;5.772;2022-08-02T02:47:16;9.32;;;1.58;;
56477;SDS011;42382;53.210;5.772;2022-08-02T02:49:44;5.57;;;1.90;;
56477;SDS011;42382;53.210;5.772;2022-08-02T02:52:11;5.25;;;1.60;;
56477;SDS011;42382;53.210;5.772;2022-08-02T02:54:40;9.70;;;1.95;;
56477;SDS011;42382;53.210;5.772;2022-08-02T02:57:08;6.50;;;2.30;;
56477;SDS011;42382;53.210;5.772;2022-08-02T02:59:35;9.35;;;2.10;;
56477;SDS011;42382;53.210;5.772;2022-08-02T03:02:02;6.97;;;1.92;;
56477;SDS011;42382;53.210;5.772;2022-08-02T03:04:29;6.03;;;1.65;;
56477;SDS011;42382;53.210;5.772;2022-08-02T03:06:56;7.60;;;1.90;;
56477;SDS011;42382;53.210;5.772;2022-08-02T03:09:21;8.02;;;1.85;;
56477;SDS011;42382;53.210;5.772;2022-08-02T03:11:47;5.25;;;2.00;;
56477;SDS011;42382;53.210;5.772;2022-08-02T03:14:13;7.85;;;1.58;;
56477;SDS011;42382;53.210;5.772;2022-08-02T03:16:43;11.30;;;2.42;;
56477;SDS011;42382;53.210;5.772;2022-08-02T03:19:10;6.13;;;1.48;;
56477;SDS011;42382;53.210;5.772;2022-08-02T03:21:36;5.40;;;1.60;;
56477;SDS011;42382;53.210;5.772;2022-08-02T03:24:02;8.23;;;1.70;;
56477;SDS011;42382;53.210;5.772;2022-08-02T03:26:28;6.63;;;1.50;;
56477;SDS011;42382;53.210;5.772;2022-08-02T03:28:54;6.03;;;2.15;;
56477;SDS011;42382;53.210;5.772;2022-08-02T03:31:20;7.85;;;2.28;;
56477;SDS011;42382;53.210;5.772;2022-08-02T03:33:45;8.88;;;2.25;;
56477;SDS011;42382;53.210;5.772;2022-08-02T03:36:13;10.43;;;2.17;;
56477;SDS011;42382;53.210;5.772;2022-08-02T03:38:40;7.38;;;2.15;;
56477;SDS011;42382;53.210;5.772;2022-08-02T03:41:08;8.05;;;1.55;;
56477;SDS011;42382;53.210;5.772;2022-08-02T03:43:35;4.68;;;1.70;;
56477;SDS011;42382;53.210;5.772;2022-08-02T03:46:04;8.32;;;1.38;;
56477;SDS011;42382;53.210;5.772;2022-08-02T03:48:31;6.30;;;1.73;;
56477;SDS011;42382;53.210;5.772;2022-08-02T03:50:58;5.32;;;2.03;;
56477;SDS011;42382;53.210;5.772;2022-08-02T03:53:24;8.38;;;1.83;;
56477;SDS011;42382;53.210;5.772;2022-08-02T03:55:50;8.43;;;1.48;;
56477;SDS011;42382;53.210;5.772;2022-08-02T03:58:19;8.35;;;2.08;;
56477;SDS011;42382;53.210;5.772;2022-08-02T04:00:45;5.20;;;1.92;;
56477;SDS011;42382;53.210;5.772;2022-08-02T04:03:11;9.23;;;1.98;;
56477;SDS011;42382;53.210;5.772;2022-08-02T04:05:37;5.78;;;1.60;;
56477;SDS011;42382;53.210;5.772;2022-08-02T04:08:03;8.98;;;1.83;;
56477;SDS011;42382;53.210;5.772;2022-08-02T04:10:29;6.88;;;1.58;;
56477;SDS011;42382;53.210;5.772;2022-08-02T04:12:54;10.10;;;2.25;;
56477;SDS011;42382;53.210;5.772;2022-08-02T04:15:21;12.05;;;2.20;;
56477;SDS011;42382;53.210;5.772;2022-08-02T04:17:55;7.68;;;1.60;;
56477;SDS011;42382;53.210;5.772;2022-08-02T04:20:23;6.07;;;1.42;;
56477;SDS011;42382;53.210;5.772;2022-08-02T04:22:56;7.15;;;1.35;;
56477;SDS011;42382;53.210;5.772;2022-08-02T04:25:30;9.30;;;1.50;;
56477;SDS011;42382;53.210;5.772;2022-08-02T04:27:58;10.48;;;1.73;;
56477;SDS011;42382;53.210;5.772;2022-08-02T04:30:24;9.05;;;1.83;;
56477;SDS011;42382;53.210;5.772;2022-08-02T04:32:50;5.45;;;2.05;;
56477;SDS011;42382;53.210;5.772;2022-08-02T04:35:16;6.75;;;1.70;;
56477;SDS011;42382;53.210;5.772;2022-08-02T04:37:42;7.63;;;1.80;;
56477;SDS011;42382;53.210;5.772;2022-08-02T04:40:09;7.78;;;2.13;;
56477;SDS011;42382;53.210;5.772;2022-08-02T04:42:36;6.43;;;1.52;;
56477;SDS011;42382;53.210;5.772;2022-08-02T04:45:03;4.78;;;1.90;;
56477;SDS011;42382;53.210;5.772;2022-08-02T04:47:29;10.85;;;1.90;;
56477;SDS011;42382;53.210;5.772;2022-08-02T04:49:55;9.65;;;2.05;;
56477;SDS011;42382;53.210;5.772;2022-08-02T04:52:21;7.47;;;1.63;;
56477;SDS011;42382;53.210;5.772;2022-08-02T04:54:47;11.90;;;2.63;;
56477;SDS011;42382;53.210;5.772;2022-08-02T04:57:12;5.35;;;1.45;;
56477;SDS011;42382;53.210;5.772;2022-08-02T04:59:56;9.55;;;1.88;;
56477;SDS011;42382;53.210;5.772;2022-08-02T05:02:22;8.18;;;1.80;;
56477;SDS011;42382;53.210;5.772;2022-08-02T05:04:47;7.32;;;1.83;;
56477;SDS011;42382;53.210;5.772;2022-08-02T05:07:13;11.05;;;1.60;;
56477;SDS011;42382;53.210;5.772;2022-08-02T05:09:38;7.38;;;1.70;;
56477;SDS011;42382;53.210;5.772;2022-08-02T05:12:04;9.43;;;1.95;;
56477;SDS011;42382;53.210;5.772;2022-08-02T05:14:30;8.02;;;1.73;;
56477;SDS011;42382;53.210;5.772;2022-08-02T05:16:56;7.97;;;2.38;;
56477;SDS011;42382;53.210;5.772;2022-08-02T05:19:21;5.57;;;1.85;;
56477;SDS011;42382;53.210;5.772;2022-08-02T05:21:47;12.57;;;2.38;;
56477;SDS011;42382;53.210;5.772;2022-08-02T05:24:12;10.55;;;2.17;;
56477;SDS011;42382;53.210;5.772;2022-08-02T05:26:38;7.25;;;2.25;;
56477;SDS011;42382;53.210;5.772;2022-08-02T05:29:03;8.73;;;2.15;;
56477;SDS011;42382;53.210;5.772;2022-08-02T05:31:31;9.90;;;2.10;;
56477;SDS011;42382;53.210;5.772;2022-08-02T05:33:56;8.73;;;2.30;;
56477;SDS011;42382;53.210;5.772;2022-08-02T05:36:22;5.45;;;1.85;;
56477;SDS011;42382;53.210;5.772;2022-08-02T05:38:47;10.35;;;2.60;;
56477;SDS011;42382;53.210;5.772;2022-08-02T05:41:15;10.85;;;2.67;;
56477;SDS011;42382;53.210;5.772;2022-08-02T05:43:44;8.88;;;2.70;;
56477;SDS011;42382;53.210;5.772;2022-08-02T05:46:10;8.63;;;2.40;;
56477;SDS011;42382;53.210;5.772;2022-08-02T05:48:36;9.25;;;2.47;;
56477;SDS011;42382;53.210;5.772;2022-08-02T05:51:03;7.70;;;2.20;;
56477;SDS011;42382;53.210;5.772;2022-08-02T05:53:37;10.77;;;1.88;;
56477;SDS011;42382;53.210;5.772;2022-08-02T05:56:33;6.97;;;2.10;;
56477;SDS011;42382;53.210;5.772;2022-08-02T05:59:25;4.88;;;1.65;;
56477;SDS011;42382;53.210;5.772;2022-08-02T06:01:56;6.50;;;1.67;;
56477;SDS011;42382;53.210;5.772;2022-08-02T06:04:47;3.90;;;1.27;;
56477;SDS011;42382;53.210;5.772;2022-08-02T06:07:34;7.43;;;1.67;;
56477;SDS011;42382;53.210;5.772;2022-08-02T06:10:05;5.57;;;1.75;;
56477;SDS011;42382;53.210;5.772;2022-08-02T06:12:32;6.15;;;1.70;;
56477;SDS011;42382;53.210;5.772;2022-08-02T06:15:03;5.07;;;2.17;;
56477;SDS011;42382;53.210;5.772;2022-08-02T06:17:29;5.82;;;1.65;;
56477;SDS011;42382;53.210;5.772;2022-08-02T06:19:55;5.68;;;1.63;;
56477;SDS011;42382;53.210;5.772;2022-08-02T06:22:25;7.57;;;2.05;;
56477;SDS011;42382;53.210;5.772;2022-08-02T06:24:51;5.40;;;1.63;;
56477;SDS011;42382;53.210;5.772;2022-08-02T06:27:19;8.30;;;1.58;;
56477;SDS011;42382;53.210;5.772;2022-08-02T06:29:45;10.07;;;2.17;;
56477;SDS011;42382;53.210;5.772;2022-08-02T06:32:16;4.93;;;1.10;;
56477;SDS011;42382;53.210;5.772;2022-08-02T06:34:43;4.70;;;1.50;;
56477;SDS011;42382;53.210;5.772;2022-08-02T06:45:39;7.70;;;1.67;;
56477;SDS011;42382;53.210;5.772;2022-08-02T06:48:05;3.83;;;0.90;;
56477;SDS011;42382;53.210;5.772;2022-08-02T06:50:31;7.35;;;1.20;;
56477;SDS011;42382;53.210;5.772;2022-08-02T06:52:57;5.03;;;1.38;;
56477;SDS011;42382;53.210;5.772;2022-08-02T06:55:23;3.80;;;1.10;;
56477;SDS011;42382;53.210;5.772;2022-08-02T06:57:48;3.50;;;1.13;;
56477;SDS011;42382;53.210;5.772;2022-08-02T07:00:14;5.30;;;1.17;;
56477;SDS011;42382;53.210;5.772;2022-08-02T07:02:40;5.47;;;0.98;;
56477;SDS011;42382;53.210;5.772;2022-08-02T07:05:06;4.00;;;0.98;;
56477;SDS011;42382;53.210;5.772;2022-08-02T07:07:32;5.00;;;1.30;;
56477;SDS011;42382;53.210;5.772;2022-08-02T07:09:58;3.80;;;1.00;;
56477;SDS011;42382;53.210;5.772;2022-08-02T07:12:24;4.47;;;0.93;;
56477;SDS011;42382;53.210;5.772;2022-08-02T07:14:51;7.50;;;1.15;;
56477;SDS011;42382;53.210;5.772;2022-08-02T07:17:16;4.95;;;0.85;;
56477;SDS011;42382;53.210;5.772;2022-08-02T07:19:42;3.58;;;0.85;;
56477;SDS011;42382;53.210;5.772;2022-08-02T07:22:08;2.83;;;0.70;;
56477;SDS011;42382;53.210;5.772;2022-08-02T07:24:34;4.70;;;0.82;;
56477;SDS011;42382;53.210;5.772;2022-08-02T07:26:59;2.72;;;0.60;;
56477;SDS011;42382;53.210;5.772;2022-08-02T07:29:25;4.47;;;0.75;;
56477;SDS011;42382;53.210;5.772;2022-08-02T07:31:51;2.90;;;0.70;;
56477;SDS011;42382;53.210;5.772;2022-08-02T07:34:17;6.75;;;0.50;;
56477;SDS011;42382;53.210;5.772;2022-08-02T07:36:42;3.20;;;0.55;;
56477;SDS011;42382;53.210;5.772;2022-08-02T07:39:08;3.10;;;0.60;;
56477;SDS011;42382;53.210;5.772;2022-08-02T07:41:33;3.25;;;0.50;;
56477;SDS011;42382;53.210;5.772;2022-08-02T07:44:02;2.78;;;0.30;;
56477;SDS011;42382;53.210;5.772;2022-08-02T07:46:27;3.70;;;0.60;;
56477;SDS011;42382;53.210;5.772;2022-08-02T07:48:53;2.65;;;0.30;;
56477;SDS011;42382;53.210;5.772;2022-08-02T07:51:19;3.03;;;0.30;;
56477;SDS011;42382;53.210;5.772;2022-08-02T07:53:45;4.45;;;0.60;;
56477;SDS011;42382;53.210;5.772;2022-08-02T07:56:11;2.95;;;0.50;;
56477;SDS011;42382;53.210;5.772;2022-08-02T07:58:37;3.13;;;0.38;;
56477;SDS011;42382;53.210;5.772;2022-08-02T08:01:02;2.03;;;0.70;;
56477;SDS011;42382;53.210;5.772;2022-08-02T08:03:28;3.70;;;0.65;;
56477;SDS011;42382;53.210;5.772;2022-08-02T08:05:54;5.30;;;0.60;;
56477;SDS011;42382;53.210;5.772;2022-08-02T08:08:19;3.97;;;0.57;;
56477;SDS011;42382;53.210;5.772;2022-08-02T08:10:45;7.38;;;0.77;;
56477;SDS011;42382;53.210;5.772;2022-08-02T08:13:11;4.88;;;0.80;;
56477;SDS011;42382;53.210;5.772;2022-08-02T08:15:37;4.50;;;1.15;;
56477;SDS011;42382;53.210;5.772;2022-08-02T08:18:02;4.22;;;0.77;;
56477;SDS011;42382;53.210;5.772;2022-08-02T08:20:29;4.82;;;0.90;;
56477;SDS011;42382;53.210;5.772;2022-08-02T08:22:54;5.07;;;1.20;;
56477;SDS011;42382;53.210;5.772;2022-08-02T08:25:20;3.03;;;0.88;;
56477;SDS011;42382;53.210;5.772;2022-08-02T08:27:46;5.57;;;1.10;;
56477;SDS011;42382;53.210;5.772;2022-08-02T08:30:16;6.10;;;1.38;;
56477;SDS011;42382;53.210;5.772;2022-08-02T08:32:43;5.63;;;1.40;;
56477;SDS011;42382;53.210;5.772;2022-08-02T08:35:09;4.70;;;1.20;;
56477;SDS011;42382;53.210;5.772;2022-08-02T08:37:35;3.22;;;1.17;;
56477;SDS011;42382;53.210;5.772;2022-08-02T08:40:05;3.35;;;1.30;;
56477;SDS011;42382;53.210;5.772;2022-08-02T08:42:32;3.60;;;1.00;;
56477;SDS011;42382;53.210;5.772;2022-08-02T08:44:58;6.45;;;2.05;;
56477;SDS011;42382;53.210;5.772;2022-08-02T08:47:34;3.58;;;1.63;;
56477;SDS011;42382;53.210;5.772;2022-08-02T08:50:03;6.35;;;1.60;;
56477;SDS011;42382;53.210;5.772;2022-08-02T08:52:35;4.32;;;1.98;;
56477;SDS011;42382;53.210;5.772;2022-08-02T08:55:11;7.30;;;2.15;;
56477;SDS011;42382;53.210;5.772;2022-08-02T08:57:39;7.32;;;1.60;;
56477;SDS011;42382;53.210;5.772;2022-08-02T09:00:06;4.55;;;1.13;;
56477;SDS011;42382;53.210;5.772;2022-08-02T09:02:33;6.88;;;1.65;;
56477;SDS011;42382;53.210;5.772;2022-08-02T09:05:00;2.95;;;1.60;;
56477;SDS011;42382;53.210;5.772;2022-08-02T09:07:26;8.15;;;1.98;;
56477;SDS011;42382;53.210;5.772;2022-08-02T09:09:52;4.13;;;1.60;;
56477;SDS011;42382;53.210;5.772;2022-08-02T09:12:18;6.10;;;2.00;;
56477;SDS011;42382;53.210;5.772;2022-08-02T09:14:46;6.50;;;1.70;;
56477;SDS011;42382;53.210;5.772;2022-08-02T09:17:12;3.67;;;1.75;;
56477;SDS011;42382;53.210;5.772;2022-08-02T09:19:38;5.38;;;1.80;;
56477;SDS011;42382;53.210;5.772;2022-08-02T09:22:05;5.03;;;2.38;;
56477;SDS011;42382;53.210;5.772;2022-08-02T09:24:42;4.47;;;1.92;;
56477;SDS011;42382;53.210;5.772;2022-08-02T09:27:14;6.65;;;2.25;;
56477;SDS011;42382;53.210;5.772;2022-08-02T09:29:46;7.15;;;2.65;;
56477;SDS011;42382;53.210;5.772;2022-08-02T09:32:16;5.97;;;3.23;;
56477;SDS011;42382;53.210;5.772;2022-08-02T09:34:43;5.78;;;2.40;;
56477;SDS011;42382;53.210;5.772;2022-08-02T09:37:20;7.85;;;3.00;;
56477;SDS011;42382;53.210;5.772;2022-08-02T09:39:54;6.75;;;3.70;;
56477;SDS011;42382;53.210;5.772;2022-08-02T09:42:21;5.03;;;4.03;;
56477;SDS011;42382;53.210;5.772;2022-08-02T09:44:53;7.07;;;4.60;;
56477;SDS011;42382;53.210;5.772;2022-08-02T09:47:19;7.03;;;3.70;;
56477;SDS011;42382;53.210;5.772;2022-08-02T09:49:46;8.32;;;3.95;;
56477;SDS011;42382;53.210;5.772;2022-08-02T09:52:11;7.47;;;3.75;;
56477;SDS011;42382;53.210;5.772;2022-08-02T09:54:38;7.15;;;3.80;;
56477;SDS011;42382;53.210;5.772;2022-08-02T09:57:04;6.45;;;4.32;;
56477;SDS011;42382;53.210;5.772;2022-08-02T09:59:30;8.48;;;4.35;;
56477;SDS011;42382;53.210;5.772;2022-08-02T10:01:56;6.35;;;4.10;;
56477;SDS011;42382;53.210;5.772;2022-08-02T10:04:24;7.78;;;4.03;;
56477;SDS011;42382;53.210;5.772;2022-08-02T10:06:51;6.47;;;3.80;;
56477;SDS011;42382;53.210;5.772;2022-08-02T10:09:18;8.32;;;3.80;;
56477;SDS011;42382;53.210;5.772;2022-08-02T10:11:45;8.43;;;5.50;;
56477;SDS011;42382;53.210;5.772;2022-08-02T10:14:11;8.45;;;5.75;;
56477;SDS011;42382;53.210;5.772;2022-08-02T10:16:38;7.22;;;5.03;;
56477;SDS011;42382;53.210;5.772;2022-08-02T10:19:05;7.88;;;4.45;;
56477;SDS011;42382;53.210;5.772;2022-08-02T10:24:11;10.50;;;5.50;;
56477;SDS011;42382;53.210;5.772;2022-08-02T10:26:39;9.50;;;5.95;;
56477;SDS011;42382;53.210;5.772;2022-08-02T10:29:08;12.85;;;6.65;;
56477;SDS011;42382;53.210;5.772;2022-08-02T10:31:54;14.77;;;7.38;;
56477;SDS011;42382;53.210;5.772;2022-08-02T10:34:25;11.70;;;7.40;;
56477;SDS011;42382;53.210;5.772;2022-08-02T10:36:55;12.85;;;7.55;;
56477;SDS011;42382;53.210;5.772;2022-08-02T10:39:22;9.88;;;7.47;;
56477;SDS011;42382;53.210;5.772;2022-08-02T10:41:49;11.35;;;6.75;;
56477;SDS011;42382;53.210;5.772;2022-08-02T10:44:22;12.18;;;7.68;;
56477;SDS011;42382;53.210;5.772;2022-08-02T10:46:50;12.30;;;7.85;;
56477;SDS011;42382;53.210;5.772;2022-08-02T10:49:17;11.77;;;7.22;;
56477;SDS011;42382;53.210;5.772;2022-08-02T10:54:26;10.25;;;8.13;;
56477;SDS011;42382;53.210;5.772;2022-08-02T10:56:54;11.53;;;7.10;;
56477;SDS011;42382;53.210;5.772;2022-08-02T10:59:25;12.00;;;8.10;;
56477;SDS011;42382;53.210;5.772;2022-08-02T11:01:56;9.35;;;7.35;;
56477;SDS011;42382;53.210;5.772;2022-08-02T11:04:31;11.20;;;8.50;;
56477;SDS011;42382;53.210;5.772;2022-08-02T11:07:20;8.93;;;7.00;;
56477;SDS011;42382;53.210;5.772;2022-08-02T11:09:56;16.95;;;9.15;;
56477;SDS011;42382;53.210;5.772;2022-08-02T11:12:23;11.18;;;9.13;;
56477;SDS011;42382;53.210;5.772;2022-08-02T11:14:59;10.95;;;8.48;;
56477;SDS011;42382;53.210;5.772;2022-08-02T11:17:28;10.73;;;8.88;;
56477;SDS011;42382;53.210;5.772;2022-08-02T11:20:18;13.32;;;9.05;;
56477;SDS011;42382;53.210;5.772;2022-08-02T11:22:45;13.45;;;10.00;;
56477;SDS011;42382;53.210;5.772;2022-08-02T11:27:54;11.65;;;10.45;;
56477;SDS011;42382;53.210;5.772;2022-08-02T11:30:21;14.43;;;10.80;;
56477;SDS011;42382;53.210;5.772;2022-08-02T11:32:48;11.35;;;9.23;;
56477;SDS011;42382;53.210;5.772;2022-08-02T11:35:14;9.38;;;7.18;;
56477;SDS011;42382;53.210;5.772;2022-08-02T11:37:41;11.07;;;8.70;;
56477;SDS011;42382;53.210;5.772;2022-08-02T11:40:12;11.88;;;9.88;;
56477;SDS011;42382;53.210;5.772;2022-08-02T11:42:41;12.10;;;10.52;;
56477;SDS011;42382;53.210;5.772;2022-08-02T11:45:08;13.75;;;10.18;;
56477;SDS011;42382;53.210;5.772;2022-08-02T11:47:48;15.77;;;10.43;;
56477;SDS011;42382;53.210;5.772;2022-08-02T11:50:19;13.35;;;9.43;;
56477;SDS011;42382;53.210;5.772;2022-08-02T11:52:49;11.80;;;9.50;;
56477;SDS011;42382;53.210;5.772;2022-08-02T11:55:17;12.73;;;10.02;;
56477;SDS011;42382;53.210;5.772;2022-08-02T11:57:56;13.43;;;10.57;;
56477;SDS011;42382;53.210;5.772;2022-08-02T12:00:26;11.88;;;10.15;;
56477;SDS011;42382;53.210;5.772;2022-08-02T12:02:51;14.35;;;9.85;;
56477;SDS011;42382;53.210;5.772;2022-08-02T12:05:18;10.30;;;9.20;;
56477;SDS011;42382;53.210;5.772;2022-08-02T12:07:46;15.18;;;10.82;;
56477;SDS011;42382;53.210;5.772;2022-08-02T12:10:13;14.88;;;10.07;;
56477;SDS011;42382;53.210;5.772;2022-08-02T12:15:14;11.63;;;9.65;;
56477;SDS011;42382;53.210;5.772;2022-08-02T12:17:45;12.48;;;10.32;;
56477;SDS011;42382;53.210;5.772;2022-08-02T12:20:34;12.50;;;10.00;;
56477;SDS011;42382;53.210;5.772;2022-08-02T12:23:01;12.90;;;9.85;;
56477;SDS011;42382;53.210;5.772;2022-08-02T12:25:27;14.10;;;9.45;;
56477;SDS011;42382;53.210;5.772;2022-08-02T12:28:11;16.08;;;9.75;;
56477;SDS011;42382;53.210;5.772;2022-08-02T12:30:58;14.50;;;9.65;;
56477;SDS011;42382;53.210;5.772;2022-08-02T12:33:28;12.38;;;10.00;;
56477;SDS011;42382;53.210;5.772;2022-08-02T12:36:15;15.52;;;11.07;;
56477;SDS011;42382;53.210;5.772;2022-08-02T12:38:49;11.80;;;10.02;;
56477;SDS011;42382;53.210;5.772;2022-08-02T12:41:15;12.50;;;9.82;;
56477;SDS011;42382;53.210;5.772;2022-08-02T12:43:41;14.93;;;10.40;;
56477;SDS011;42382;53.210;5.772;2022-08-02T12:46:13;15.85;;;11.10;;
56477;SDS011;42382;53.210;5.772;2022-08-02T12:48:41;17.65;;;10.35;;
56477;SDS011;42382;53.210;5.772;2022-08-02T12:51:23;13.52;;;9.38;;
56477;SDS011;42382;53.210;5.772;2022-08-02T12:54:15;17.60;;;11.23;;
56477;SDS011;42382;53.210;5.772;2022-08-02T12:56:43;13.10;;;9.23;;
56477;SDS011;42382;53.210;5.772;2022-08-02T12:59:08;13.20;;;9.10;;
56477;SDS011;42382;53.210;5.772;2022-08-02T13:01:35;12.73;;;9.15;;
56477;SDS011;42382;53.210;5.772;2022-08-02T13:04:00;10.73;;;7.15;;
56477;SDS011;42382;53.210;5.772;2022-08-02T13:06:26;8.07;;;5.47;;
56477;SDS011;42382;53.210;5.772;2022-08-02T13:08:52;8.30;;;5.25;;
56477;SDS011;42382;53.210;5.772;2022-08-02T13:11:22;8.95;;;5.57;;
56477;SDS011;42382;53.210;5.772;2022-08-02T13:13:48;6.38;;;4.25;;
56477;SDS011;42382;53.210;5.772;2022-08-02T13:16:14;11.45;;;5.07;;
56477;SDS011;42382;53.210;5.772;2022-08-02T13:18:40;9.45;;;4.75;;
56477;SDS011;42382;53.210;5.772;2022-08-02T13:21:06;9.60;;;4.25;;
56477;SDS011;42382;53.210;5.772;2022-08-02T13:23:33;7.65;;;3.45;;
56477;SDS011;42382;53.210;5.772;2022-08-02T13:26:00;8.80;;;3.38;;
56477;SDS011;42382;53.210;5.772;2022-08-02T13:28:26;4.82;;;2.50;;
56477;SDS011;42382;53.210;5.772;2022-08-02T13:30:51;3.58;;;2.45;;
56477;SDS011;42382;53.210;5.772;2022-08-02T13:33:17;5.32;;;2.42;;
56477;SDS011;42382;53.210;5.772;2022-08-02T13:35:43;3.72;;;2.22;;
56477;SDS011;42382;53.210;5.772;2022-08-02T13:38:10;4.50;;;1.95;;
56477;SDS011;42382;53.210;5.772;2022-08-02T13:40:35;3.10;;;1.60;;
56477;SDS011;42382;53.210;5.772;2022-08-02T13:43:20;10.53;;;3.40;;
56477;SDS011;42382;53.210;5.772;2022-08-02T13:45:46;7.20;;;2.78;;
56477;SDS011;42382;53.210;5.772;2022-08-02T13:48:11;6.53;;;2.72;;
56477;SDS011;42382;53.210;5.772;2022-08-02T13:50:37;10.90;;;3.00;;
56477;SDS011;42382;53.210;5.772;2022-08-02T13:53:03;7.38;;;3.50;;
56477;SDS011;42382;53.210;5.772;2022-08-02T13:55:28;7.68;;;2.42;;
56477;SDS011;42382;53.210;5.772;2022-08-02T13:57:54;4.35;;;2.22;;
56477;SDS011;42382;53.210;5.772;2022-08-02T14:00:20;5.03;;;2.28;;
56477;SDS011;42382;53.210;5.772;2022-08-02T14:02:46;5.75;;;2.30;;
56477;SDS011;42382;53.210;5.772;2022-08-02T14:05:11;8.40;;;2.95;;
56477;SDS011;42382;53.210;5.772;2022-08-02T14:07:37;4.38;;;1.88;;
56477;SDS011;42382;53.210;5.772;2022-08-02T14:10:03;8.68;;;2.70;;
56477;SDS011;42382;53.210;5.772;2022-08-02T14:12:28;2.85;;;2.17;;
56477;SDS011;42382;53.210;5.772;2022-08-02T14:14:54;10.27;;;3.25;;
56477;SDS011;42382;53.210;5.772;2022-08-02T14:17:19;5.63;;;2.03;;
56477;SDS011;42382;53.210;5.772;2022-08-02T14:19:45;8.60;;;2.50;;
56477;SDS011;42382;53.210;5.772;2022-08-02T14:22:11;5.40;;;2.15;;
56477;SDS011;42382;53.210;5.772;2022-08-02T14:24:36;3.35;;;1.52;;
56477;SDS011;42382;53.210;5.772;2022-08-02T14:27:03;5.60;;;1.55;;
56477;SDS011;42382;53.210;5.772;2022-08-02T14:29:28;3.30;;;0.95;;
56477;SDS011;42382;53.210;5.772;2022-08-02T14:31:54;3.05;;;1.27;;
56477;SDS011;42382;53.210;5.772;2022-08-02T14:34:19;6.07;;;1.38;;
56477;SDS011;42382;53.210;5.772;2022-08-02T14:36:45;3.17;;;0.80;;
56477;SDS011;42382;53.210;5.772;2022-08-02T14:39:11;5.15;;;0.93;;
56477;SDS011;42382;53.210;5.772;2022-08-02T14:41:36;3.10;;;0.93;;
56477;SDS011;42382;53.210;5.772;2022-08-02T14:44:03;5.15;;;0.60;;
56477;SDS011;42382;53.210;5.772;2022-08-02T14:46:32;2.97;;;0.90;;
56477;SDS011;42382;53.210;5.772;2022-08-02T14:49:04;2.85;;;0.80;;
56477;SDS011;42382;53.210;5.772;2022-08-02T14:51:32;4.30;;;0.60;;
56477;SDS011;42382;53.210;5.772;2022-08-02T14:53:58;2.83;;;0.45;;
56477;SDS011;42382;53.210;5.772;2022-08-02T14:56:24;5.05;;;0.77;;
56477;SDS011;42382;53.210;5.772;2022-08-02T14:58:50;3.33;;;0.60;;
56477;SDS011;42382;53.210;5.772;2022-08-02T15:01:15;4.80;;;1.08;;
56477;SDS011;42382;53.210;5.772;2022-08-02T15:03:41;1.90;;;0.30;;
56477;SDS011;42382;53.210;5.772;2022-08-02T15:06:07;2.33;;;0.60;;
56477;SDS011;42382;53.210;5.772;2022-08-02T15:08:32;2.67;;;0.70;;
56477;SDS011;42382;53.210;5.772;2022-08-02T15:10:58;5.05;;;0.73;;
56477;SDS011;42382;53.210;5.772;2022-08-02T15:13:24;9.27;;;1.55;;
56477;SDS011;42382;53.210;5.772;2022-08-02T15:15:49;2.95;;;0.77;;